LAN256 SCTE-SCEL
Flight info
| Callsign | LAN256 |
|---|---|
| Flight time | N/A |
| Altitude | 34000 |
| Route | ANROS6A ANROS UQ802 EROLO EROLO2D |
| Aircraft | A320/M-SDE3FGHIRWY/LB1 |
Departure
| Time | 2026-04-24 00:23 |
|---|---|
| Airport | El Tepual International Airport (SCTE) |
Arrival
| Time | N/A |
|---|---|
| Airport | Comodoro Arturo Merino Benítez International Airport (SCEL) |
| Time | Latitude | Longitude | Altitude | Speed | Heading |
|---|---|---|---|---|---|
| 2026-04-23 23:54 | -41.43409 | -73.09747 | 301 ft | 0 kts | 270° |
| 2026-04-24 00:11 | -41.43410 | -73.09742 | 301 ft | 3 kts | 271° |
| 2026-04-24 00:12 | -41.43410 | -73.09706 | 301 ft | 4 kts | 272° |
| 2026-04-24 00:12 | -41.43411 | -73.09670 | 301 ft | 4 kts | 271° |
| 2026-04-24 00:12 | -41.43411 | -73.09634 | 301 ft | 4 kts | 263° |
| 2026-04-24 00:12 | -41.43404 | -73.09604 | 301 ft | 4 kts | 216° |
| 2026-04-24 00:13 | -41.43398 | -73.09599 | 303 ft | 0 kts | 181° |
| 2026-04-24 00:15 | -41.43414 | -73.09599 | 301 ft | 3 kts | 181° |
| 2026-04-24 00:15 | -41.43444 | -73.09600 | 304 ft | 5 kts | 181° |
| 2026-04-24 00:15 | -41.43482 | -73.09601 | 303 ft | 6 kts | 181° |
| 2026-04-24 00:15 | -41.43527 | -73.09603 | 301 ft | 7 kts | 181° |
| 2026-04-24 00:16 | -41.43582 | -73.09605 | 302 ft | 8 kts | 181° |
| 2026-04-24 00:16 | -41.43637 | -73.09607 | 301 ft | 8 kts | 182° |
| 2026-04-24 00:16 | -41.43695 | -73.09610 | 301 ft | 8 kts | 182° |
| 2026-04-24 00:16 | -41.43753 | -73.09612 | 301 ft | 9 kts | 181° |
| 2026-04-24 00:17 | -41.43815 | -73.09614 | 302 ft | 9 kts | 181° |
| 2026-04-24 00:17 | -41.43879 | -73.09615 | 302 ft | 9 kts | 181° |
| 2026-04-24 00:17 | -41.43947 | -73.09618 | 300 ft | 10 kts | 183° |
| 2026-04-24 00:17 | -41.44012 | -73.09622 | 301 ft | 9 kts | 182° |
| 2026-04-24 00:18 | -41.44076 | -73.09624 | 301 ft | 10 kts | 181° |
| 2026-04-24 00:18 | -41.44198 | -73.09628 | 301 ft | 25 kts | 181° |
| 2026-04-24 00:18 | -41.44382 | -73.09634 | 299 ft | 27 kts | 181° |
| 2026-04-24 00:18 | -41.44575 | -73.09641 | 301 ft | 28 kts | 181° |
| 2026-04-24 00:19 | -41.44772 | -73.09648 | 301 ft | 29 kts | 181° |
| 2026-04-24 00:19 | -41.44933 | -73.09654 | 303 ft | 13 kts | 181° |
| 2026-04-24 00:19 | -41.45014 | -73.09657 | 302 ft | 11 kts | 181° |
| 2026-04-24 00:19 | -41.45064 | -73.09618 | 303 ft | 7 kts | 111° |
| 2026-04-24 00:20 | -41.45067 | -73.09579 | 304 ft | 1 kts | 93° |
| 2026-04-24 00:20 | -41.45067 | -73.09575 | 304 ft | 2 kts | 93° |
| 2026-04-24 00:20 | -41.45069 | -73.09523 | 311 ft | 8 kts | 93° |
| 2026-04-24 00:20 | -41.45070 | -73.09502 | 310 ft | 0 kts | 92° |
| 2026-04-24 00:21 | -41.45070 | -73.09464 | 312 ft | 2 kts | 80° |
| 2026-04-24 00:21 | -41.45059 | -73.09445 | 312 ft | 5 kts | 44° |
| 2026-04-24 00:21 | -41.45027 | -73.09437 | 310 ft | 0 kts | 3° |
| 2026-04-24 00:22 | -41.44922 | -73.09434 | 307 ft | 48 kts | 1° |
| 2026-04-24 00:22 | -41.44350 | -73.09414 | 286 ft | 113 kts | 1° |
| 2026-04-24 00:22 | -41.43376 | -73.09365 | 574 ft | 151 kts | 2° |
| 2026-04-24 00:23 | -41.42296 | -73.09301 | 1417 ft | 160 kts | 357° |
| 2026-04-24 00:23 | -41.41158 | -73.09258 | 2044 ft | 171 kts | 355° |
| 2026-04-24 00:23 | -41.39891 | -73.09229 | 2365 ft | 193 kts | 355° |
| 2026-04-24 00:23 | -41.38468 | -73.09195 | 2667 ft | 217 kts | 355° |
| 2026-04-24 00:24 | -41.36873 | -73.09155 | 3114 ft | 241 kts | 356° |
| 2026-04-24 00:24 | -41.35159 | -73.09112 | 3831 ft | 250 kts | 356° |
| 2026-04-24 00:24 | -41.33415 | -73.09062 | 4675 ft | 256 kts | 356° |
| 2026-04-24 00:24 | -41.31621 | -73.09002 | 5565 ft | 260 kts | 356° |
| 2026-04-24 00:25 | -41.29802 | -73.08939 | 6447 ft | 264 kts | 356° |
| 2026-04-24 00:25 | -41.27954 | -73.08874 | 7262 ft | 268 kts | 356° |
| 2026-04-24 00:25 | -41.26074 | -73.08795 | 8056 ft | 274 kts | 359° |
| 2026-04-24 00:25 | -41.24132 | -73.08408 | 8854 ft | 281 kts | 3° |
| 2026-04-24 00:26 | -41.22211 | -73.07974 | 9639 ft | 286 kts | 2° |
| 2026-04-24 00:26 | -41.20228 | -73.07531 | 10391 ft | 292 kts | 2° |
| 2026-04-24 00:26 | -41.18155 | -73.07082 | 10704 ft | 314 kts | 2° |
| 2026-04-24 00:26 | -41.15921 | -73.06612 | 10983 ft | 334 kts | 2° |
| 2026-04-24 00:27 | -41.13592 | -73.06115 | 11549 ft | 343 kts | 2° |
| 2026-04-24 00:27 | -41.11222 | -73.05600 | 12233 ft | 348 kts | 2° |
| 2026-04-24 00:27 | -41.08811 | -73.05072 | 12917 ft | 353 kts | 2° |
| 2026-04-24 00:27 | -41.06375 | -73.04538 | 13584 ft | 358 kts | 2° |
| 2026-04-24 00:28 | -41.03900 | -73.03998 | 14207 ft | 363 kts | 2° |
| 2026-04-24 00:28 | -41.01393 | -73.03455 | 14808 ft | 367 kts | 2° |
| 2026-04-24 00:28 | -40.98863 | -73.02909 | 15415 ft | 370 kts | 2° |
| 2026-04-24 00:28 | -40.96309 | -73.02361 | 16020 ft | 374 kts | 2° |
| 2026-04-24 00:29 | -40.93727 | -73.01810 | 16637 ft | 377 kts | 2° |
| 2026-04-24 00:29 | -40.91126 | -73.01257 | 17202 ft | 381 kts | 2° |
| 2026-04-24 00:29 | -40.88497 | -73.00700 | 17795 ft | 384 kts | 2° |
| 2026-04-24 00:29 | -40.85844 | -73.00138 | 18388 ft | 388 kts | 2° |
| 2026-04-24 00:30 | -40.83164 | -72.99569 | 18908 ft | 391 kts | 2° |
| 2026-04-24 00:30 | -40.80469 | -72.98994 | 19429 ft | 394 kts | 2° |
| 2026-04-24 00:30 | -40.77759 | -72.98412 | 19949 ft | 396 kts | 3° |
| 2026-04-24 00:30 | -40.75026 | -72.97826 | 20462 ft | 398 kts | 3° |
| 2026-04-24 00:31 | -40.72280 | -72.97240 | 20973 ft | 401 kts | 3° |
| 2026-04-24 00:31 | -40.69522 | -72.96649 | 21463 ft | 402 kts | 3° |
| 2026-04-24 00:31 | -40.66786 | -72.96066 | 21971 ft | 404 kts | 3° |
| 2026-04-24 00:31 | -40.63999 | -72.95476 | 22470 ft | 406 kts | 3° |
| 2026-04-24 00:32 | -40.61200 | -72.94888 | 23006 ft | 407 kts | 3° |
| 2026-04-24 00:32 | -40.58393 | -72.94296 | 23489 ft | 409 kts | 3° |
| 2026-04-24 00:32 | -40.55569 | -72.93699 | 23907 ft | 412 kts | 3° |
| 2026-04-24 00:32 | -40.52728 | -72.93101 | 24297 ft | 414 kts | 3° |
| 2026-04-24 00:33 | -40.49879 | -72.92502 | 24690 ft | 416 kts | 3° |
| 2026-04-24 00:33 | -40.47019 | -72.91897 | 25078 ft | 417 kts | 3° |
| 2026-04-24 00:33 | -40.44147 | -72.91284 | 25456 ft | 419 kts | 3° |
| 2026-04-24 00:33 | -40.41261 | -72.90670 | 25840 ft | 420 kts | 2° |
| 2026-04-24 00:34 | -40.38368 | -72.90061 | 26209 ft | 422 kts | 2° |
| 2026-04-24 00:34 | -40.35462 | -72.89450 | 26570 ft | 424 kts | 2° |
| 2026-04-24 00:34 | -40.32532 | -72.88849 | 26932 ft | 425 kts | 2° |
| 2026-04-24 00:34 | -40.29599 | -72.88321 | 27288 ft | 426 kts | 1° |
| 2026-04-24 00:35 | -40.26647 | -72.87848 | 27622 ft | 428 kts | 360° |
| 2026-04-24 00:35 | -40.23685 | -72.87400 | 27985 ft | 429 kts | 359° |
| 2026-04-24 00:35 | -40.20750 | -72.86956 | 28319 ft | 431 kts | 360° |
| 2026-04-24 00:35 | -40.17761 | -72.86490 | 28661 ft | 434 kts | 360° |
| 2026-04-24 00:36 | -40.14755 | -72.86007 | 28993 ft | 436 kts | 0° |
| 2026-04-24 00:36 | -40.11740 | -72.85513 | 29319 ft | 438 kts | 0° |
| 2026-04-24 00:36 | -40.08713 | -72.85012 | 29628 ft | 439 kts | 0° |
| 2026-04-24 00:36 | -40.05671 | -72.84509 | 29893 ft | 441 kts | 360° |
| 2026-04-24 00:37 | -40.02619 | -72.84011 | 30202 ft | 443 kts | 360° |
| 2026-04-24 00:37 | -39.99556 | -72.83513 | 30465 ft | 445 kts | 360° |
| 2026-04-24 00:37 | -39.96478 | -72.83015 | 30725 ft | 446 kts | 360° |
| 2026-04-24 00:37 | -39.93390 | -72.82523 | 30974 ft | 447 kts | 360° |
| 2026-04-24 00:38 | -39.90294 | -72.82031 | 31195 ft | 449 kts | 360° |
| 2026-04-24 00:38 | -39.87182 | -72.81532 | 31468 ft | 449 kts | 360° |
| 2026-04-24 00:38 | -39.84084 | -72.81025 | 31836 ft | 448 kts | 0° |
| 2026-04-24 00:38 | -39.80991 | -72.80513 | 32197 ft | 447 kts | 0° |
| 2026-04-24 00:39 | -39.77949 | -72.80009 | 32557 ft | 446 kts | 360° |
| 2026-04-24 00:39 | -39.74874 | -72.79506 | 32908 ft | 444 kts | 360° |
| 2026-04-24 00:39 | -39.71800 | -72.79009 | 33254 ft | 443 kts | 360° |
| 2026-04-24 00:39 | -39.68742 | -72.78507 | 33593 ft | 443 kts | 0° |
| 2026-04-24 00:40 | -39.65691 | -72.77971 | 33948 ft | 442 kts | 0° |
| 2026-04-24 00:40 | -39.62642 | -72.77413 | 34200 ft | 442 kts | 1° |
| 2026-04-24 00:40 | -39.56627 | -72.76283 | 34246 ft | 433 kts | 1° |
| 2026-04-24 00:41 | -39.51672 | -72.75369 | 34246 ft | 432 kts | 0° |
| 2026-04-24 00:41 | -39.45726 | -72.74296 | 34248 ft | 431 kts | 0° |
| 2026-04-24 00:42 | -39.39786 | -72.73224 | 34247 ft | 431 kts | 0° |
| 2026-04-24 00:42 | -39.33843 | -72.72150 | 34256 ft | 431 kts | 0° |
| 2026-04-24 00:43 | -39.27896 | -72.71075 | 34254 ft | 431 kts | 0° |
| 2026-04-24 00:43 | -39.21948 | -72.69997 | 34259 ft | 431 kts | 0° |
| 2026-04-24 00:44 | -39.16005 | -72.68926 | 34230 ft | 431 kts | 0° |
| 2026-04-24 00:44 | -39.10066 | -72.67858 | 34243 ft | 431 kts | 0° |
| 2026-04-24 00:45 | -39.04119 | -72.66791 | 34248 ft | 430 kts | 0° |
| 2026-04-24 00:45 | -38.98185 | -72.65724 | 34249 ft | 430 kts | 0° |
| 2026-04-24 00:46 | -38.92254 | -72.64656 | 34228 ft | 430 kts | 0° |
| 2026-04-24 00:46 | -38.86329 | -72.63372 | 34235 ft | 434 kts | 5° |
| 2026-04-24 00:47 | -38.80469 | -72.61616 | 34243 ft | 436 kts | 6° |
| 2026-04-24 00:47 | -38.74573 | -72.59782 | 34240 ft | 436 kts | 6° |
| 2026-04-24 00:48 | -38.68671 | -72.58049 | 34225 ft | 435 kts | 5° |
| 2026-04-24 00:48 | -38.62753 | -72.56394 | 34238 ft | 435 kts | 5° |
| 2026-04-24 00:49 | -38.56832 | -72.54735 | 34245 ft | 436 kts | 5° |
| 2026-04-24 00:49 | -38.50905 | -72.53057 | 34262 ft | 436 kts | 6° |
| 2026-04-24 00:50 | -38.44979 | -72.51378 | 34243 ft | 436 kts | 6° |
| 2026-04-24 00:50 | -38.39049 | -72.49700 | 34251 ft | 437 kts | 6° |
| 2026-04-24 00:51 | -38.33116 | -72.48026 | 34258 ft | 437 kts | 6° |
| 2026-04-24 00:51 | -38.27178 | -72.46358 | 34263 ft | 437 kts | 6° |
| 2026-04-24 00:52 | -38.21239 | -72.44693 | 34249 ft | 437 kts | 6° |
| 2026-04-24 00:52 | -38.15325 | -72.43040 | 34251 ft | 438 kts | 6° |
| 2026-04-24 00:53 | -38.09365 | -72.41376 | 34252 ft | 439 kts | 6° |
| 2026-04-24 00:53 | -38.03400 | -72.39701 | 34255 ft | 439 kts | 6° |
| 2026-04-24 00:54 | -37.97430 | -72.38031 | 34248 ft | 439 kts | 6° |
| 2026-04-24 00:54 | -37.91455 | -72.36370 | 34248 ft | 440 kts | 6° |
| 2026-04-24 00:55 | -37.85474 | -72.34705 | 34242 ft | 440 kts | 6° |
| 2026-04-24 00:55 | -37.79485 | -72.33039 | 34247 ft | 440 kts | 6° |
| 2026-04-24 00:56 | -37.73496 | -72.31385 | 34221 ft | 440 kts | 6° |
| 2026-04-24 00:56 | -37.67506 | -72.29738 | 34233 ft | 441 kts | 6° |
| 2026-04-24 00:57 | -37.61546 | -72.28073 | 34241 ft | 442 kts | 7° |
| 2026-04-24 00:58 | -37.52582 | -72.25299 | 34231 ft | 443 kts | 8° |
| 2026-04-24 00:58 | -37.46606 | -72.23429 | 34234 ft | 443 kts | 8° |
| 2026-04-24 00:59 | -37.40611 | -72.21602 | 34235 ft | 443 kts | 7° |
| 2026-04-24 00:59 | -37.34619 | -72.19793 | 34246 ft | 443 kts | 7° |
| 2026-04-24 01:00 | -37.28615 | -72.17977 | 34227 ft | 443 kts | 8° |
| 2026-04-24 01:00 | -37.22623 | -72.16157 | 34236 ft | 443 kts | 8° |
| 2026-04-24 01:01 | -37.16664 | -72.14348 | 34237 ft | 444 kts | 8° |
| 2026-04-24 01:01 | -37.10659 | -72.12536 | 34240 ft | 444 kts | 8° |
| 2026-04-24 01:02 | -37.04652 | -72.10731 | 34223 ft | 444 kts | 8° |
| 2026-04-24 01:02 | -36.98645 | -72.08923 | 34228 ft | 444 kts | 8° |
| 2026-04-24 01:03 | -36.92639 | -72.07116 | 34236 ft | 444 kts | 8° |
| 2026-04-24 01:03 | -36.86620 | -72.05309 | 34240 ft | 444 kts | 8° |
| 2026-04-24 01:04 | -36.80613 | -72.03506 | 34212 ft | 444 kts | 8° |
| 2026-04-24 01:04 | -36.74606 | -72.01711 | 34220 ft | 444 kts | 8° |
| 2026-04-24 01:05 | -36.68628 | -71.99929 | 34226 ft | 444 kts | 8° |
| 2026-04-24 01:05 | -36.62618 | -71.98138 | 34230 ft | 444 kts | 8° |
| 2026-04-24 01:06 | -36.56608 | -71.96353 | 34230 ft | 444 kts | 8° |
| 2026-04-24 01:06 | -36.50601 | -71.94568 | 34212 ft | 444 kts | 8° |
| 2026-04-24 01:07 | -36.44593 | -71.92775 | 34218 ft | 444 kts | 8° |
| 2026-04-24 01:07 | -36.38575 | -71.90995 | 34220 ft | 444 kts | 8° |
| 2026-04-24 01:08 | -36.32560 | -71.89219 | 34213 ft | 444 kts | 8° |
| 2026-04-24 01:08 | -36.26552 | -71.87449 | 34207 ft | 444 kts | 8° |
| 2026-04-24 01:09 | -36.20578 | -71.85688 | 34212 ft | 444 kts | 8° |
| 2026-04-24 01:09 | -36.14568 | -71.83914 | 34217 ft | 444 kts | 8° |
| 2026-04-24 01:10 | -36.08560 | -71.82147 | 34214 ft | 444 kts | 8° |
| 2026-04-24 01:10 | -36.02549 | -71.80391 | 34210 ft | 444 kts | 8° |
| 2026-04-24 01:11 | -35.96536 | -71.78626 | 34210 ft | 444 kts | 8° |
| 2026-04-24 01:11 | -35.90524 | -71.76858 | 34213 ft | 444 kts | 8° |
| 2026-04-24 01:12 | -35.84511 | -71.75102 | 34220 ft | 444 kts | 8° |
| 2026-04-24 01:12 | -35.78499 | -71.73352 | 34207 ft | 444 kts | 8° |
| 2026-04-24 01:13 | -35.72489 | -71.71605 | 34211 ft | 444 kts | 8° |
| 2026-04-24 01:13 | -35.66474 | -71.69861 | 34214 ft | 444 kts | 8° |
| 2026-04-24 01:14 | -35.60461 | -71.68114 | 34215 ft | 444 kts | 8° |
| 2026-04-24 01:14 | -35.54481 | -71.66401 | 34197 ft | 444 kts | 8° |
| 2026-04-24 01:15 | -35.48463 | -71.64687 | 34202 ft | 444 kts | 8° |
| 2026-04-24 01:15 | -35.42440 | -71.62958 | 34208 ft | 444 kts | 8° |
| 2026-04-24 01:16 | -35.36421 | -71.61223 | 34218 ft | 444 kts | 8° |
| 2026-04-24 01:16 | -35.30403 | -71.59481 | 34198 ft | 444 kts | 8° |
| 2026-04-24 01:17 | -35.24379 | -71.57742 | 34201 ft | 444 kts | 8° |
| 2026-04-24 01:17 | -35.18355 | -71.56013 | 34209 ft | 445 kts | 8° |
| 2026-04-24 01:18 | -35.12331 | -71.54284 | 34200 ft | 445 kts | 8° |
| 2026-04-24 01:18 | -35.06307 | -71.52549 | 34200 ft | 444 kts | 8° |
| 2026-04-24 01:19 | -35.00326 | -71.50847 | 34201 ft | 444 kts | 8° |
| 2026-04-24 01:19 | -34.94300 | -71.49135 | 34212 ft | 445 kts | 8° |
| 2026-04-24 01:20 | -34.88268 | -71.47409 | 34209 ft | 445 kts | 9° |
| 2026-04-24 01:20 | -34.82242 | -71.45684 | 34206 ft | 445 kts | 8° |
| 2026-04-24 01:21 | -34.76219 | -71.43965 | 34187 ft | 445 kts | 8° |
| 2026-04-24 01:21 | -34.70187 | -71.42258 | 34128 ft | 446 kts | 8° |
| 2026-04-24 01:21 | -34.67169 | -71.41403 | 33848 ft | 444 kts | 9° |
| 2026-04-24 01:22 | -34.64196 | -71.40375 | 33576 ft | 446 kts | 16° |
| 2026-04-24 01:22 | -34.61312 | -71.38974 | 33307 ft | 445 kts | 18° |
| 2026-04-24 01:22 | -34.58460 | -71.37571 | 32810 ft | 441 kts | 18° |
| 2026-04-24 01:22 | -34.55624 | -71.36172 | 32268 ft | 438 kts | 18° |
| 2026-04-24 01:23 | -34.52849 | -71.34798 | 31742 ft | 435 kts | 18° |
| 2026-04-24 01:23 | -34.50059 | -71.33415 | 31218 ft | 432 kts | 18° |
| 2026-04-24 01:23 | -34.47284 | -71.32046 | 30685 ft | 430 kts | 18° |
| 2026-04-24 01:23 | -34.44521 | -71.30688 | 30154 ft | 428 kts | 18° |
| 2026-04-24 01:24 | -34.41775 | -71.29336 | 29595 ft | 424 kts | 18° |
| 2026-04-24 01:24 | -34.39935 | -71.28431 | 29270 ft | 421 kts | 18° |
| 2026-04-24 01:24 | -34.36377 | -71.26682 | 28619 ft | 413 kts | 17° |
| 2026-04-24 01:24 | -34.33720 | -71.25380 | 28139 ft | 409 kts | 17° |
| 2026-04-24 01:25 | -34.31094 | -71.24100 | 27667 ft | 405 kts | 17° |
| 2026-04-24 01:25 | -34.28490 | -71.22835 | 27216 ft | 401 kts | 17° |
| 2026-04-24 01:25 | -34.26783 | -71.22004 | 26908 ft | 398 kts | 17° |
| 2026-04-24 01:25 | -34.24227 | -71.20754 | 26477 ft | 394 kts | 17° |
| 2026-04-24 01:26 | -34.21695 | -71.19513 | 26038 ft | 391 kts | 17° |
| 2026-04-24 01:26 | -34.19183 | -71.18286 | 25592 ft | 389 kts | 17° |
| 2026-04-24 01:26 | -34.15847 | -71.16659 | 25000 ft | 384 kts | 17° |
| 2026-04-24 01:26 | -34.13375 | -71.15456 | 24544 ft | 382 kts | 17° |
| 2026-04-24 01:27 | -34.10914 | -71.14259 | 24091 ft | 380 kts | 17° |
| 2026-04-24 01:27 | -34.09291 | -71.13469 | 23784 ft | 380 kts | 17° |
| 2026-04-24 01:27 | -34.06048 | -71.11890 | 23111 ft | 378 kts | 17° |
| 2026-04-24 01:27 | -34.03618 | -71.10704 | 22649 ft | 376 kts | 17° |
| 2026-04-24 01:28 | -34.01200 | -71.09524 | 22175 ft | 373 kts | 18° |
| 2026-04-24 01:28 | -33.98814 | -71.08355 | 21743 ft | 369 kts | 18° |
| 2026-04-24 01:28 | -33.97210 | -71.07567 | 21441 ft | 368 kts | 18° |
| 2026-04-24 01:28 | -33.94849 | -71.06413 | 20990 ft | 365 kts | 18° |
| 2026-04-24 01:29 | -33.92528 | -71.05281 | 20548 ft | 364 kts | 18° |
| 2026-04-24 01:29 | -33.90183 | -71.04141 | 20105 ft | 363 kts | 19° |
| 2026-04-24 01:29 | -33.87843 | -71.03007 | 19660 ft | 362 kts | 19° |
| 2026-04-24 01:29 | -33.85503 | -71.01874 | 19214 ft | 361 kts | 19° |
| 2026-04-24 01:30 | -33.83175 | -71.00749 | 18772 ft | 360 kts | 19° |
| 2026-04-24 01:30 | -33.80853 | -70.99627 | 18319 ft | 359 kts | 19° |
| 2026-04-24 01:30 | -33.78537 | -70.98510 | 17852 ft | 358 kts | 19° |
| 2026-04-24 01:30 | -33.76234 | -70.97397 | 17432 ft | 355 kts | 19° |
| 2026-04-24 01:31 | -33.73952 | -70.96293 | 16993 ft | 352 kts | 19° |
| 2026-04-24 01:31 | -33.71687 | -70.95199 | 16584 ft | 349 kts | 19° |
| 2026-04-24 01:31 | -33.69439 | -70.94119 | 16172 ft | 347 kts | 19° |
| 2026-04-24 01:31 | -33.67200 | -70.93044 | 15757 ft | 345 kts | 19° |
| 2026-04-24 01:32 | -33.64976 | -70.91973 | 15344 ft | 344 kts | 19° |
| 2026-04-24 01:32 | -33.62760 | -70.90905 | 14937 ft | 342 kts | 19° |
| 2026-04-24 01:32 | -33.60556 | -70.89842 | 14532 ft | 341 kts | 20° |
| 2026-04-24 01:32 | -33.58357 | -70.88785 | 14123 ft | 340 kts | 20° |
| 2026-04-24 01:33 | -33.56230 | -70.87646 | 13680 ft | 340 kts | 27° |
| 2026-04-24 01:33 | -33.54218 | -70.86175 | 13256 ft | 338 kts | 29° |
| 2026-04-24 01:33 | -33.52224 | -70.84705 | 12825 ft | 335 kts | 29° |
| 2026-04-24 01:33 | -33.50241 | -70.83250 | 12402 ft | 333 kts | 29° |
| 2026-04-24 01:34 | -33.48272 | -70.81808 | 11970 ft | 331 kts | 30° |
| 2026-04-24 01:34 | -33.46255 | -70.80527 | 11535 ft | 326 kts | 18° |
| 2026-04-24 01:34 | -33.44052 | -70.80028 | 11117 ft | 321 kts | 359° |
| 2026-04-24 01:34 | -33.41860 | -70.80404 | 10689 ft | 318 kts | 341° |
| 2026-04-24 01:35 | -33.39901 | -70.81593 | 10285 ft | 316 kts | 326° |
| 2026-04-24 01:35 | -33.38105 | -70.83069 | 10032 ft | 308 kts | 326° |
| 2026-04-24 01:35 | -33.36378 | -70.84473 | 9822 ft | 292 kts | 326° |
| 2026-04-24 01:35 | -33.34716 | -70.85817 | 9241 ft | 286 kts | 326° |
| 2026-04-24 01:36 | -33.33078 | -70.87137 | 8587 ft | 283 kts | 326° |
| 2026-04-24 01:36 | -33.31447 | -70.88451 | 7923 ft | 281 kts | 326° |
| 2026-04-24 01:36 | -33.29866 | -70.89723 | 7653 ft | 265 kts | 326° |
| 2026-04-24 01:36 | -33.28408 | -70.90895 | 7520 ft | 247 kts | 326° |
| 2026-04-24 01:37 | -33.27013 | -70.92015 | 7409 ft | 238 kts | 326° |
| 2026-04-24 01:37 | -33.25598 | -70.92970 | 7151 ft | 236 kts | 340° |
| 2026-04-24 01:37 | -33.23960 | -70.93296 | 6678 ft | 244 kts | 2° |
| 2026-04-24 01:37 | -33.22306 | -70.92862 | 6213 ft | 243 kts | 24° |
| 2026-04-24 01:38 | -33.20920 | -70.91752 | 5773 ft | 240 kts | 45° |
| 2026-04-24 01:38 | -33.19970 | -70.90145 | 5352 ft | 236 kts | 67° |
| 2026-04-24 01:38 | -33.19581 | -70.88332 | 5291 ft | 217 kts | 86° |
| 2026-04-24 01:38 | -33.19691 | -70.86629 | 5257 ft | 198 kts | 104° |
| 2026-04-24 01:39 | -33.20186 | -70.85157 | 5152 ft | 186 kts | 119° |
| 2026-04-24 01:39 | -33.20927 | -70.83893 | 4884 ft | 186 kts | 131° |
| 2026-04-24 01:39 | -33.21855 | -70.82834 | 4620 ft | 184 kts | 142° |
| 2026-04-24 01:39 | -33.22923 | -70.82013 | 4367 ft | 182 kts | 153° |
| 2026-04-24 01:40 | -33.24089 | -70.81450 | 4134 ft | 180 kts | 163° |
| 2026-04-24 01:40 | -33.25307 | -70.81156 | 3896 ft | 178 kts | 173° |
| 2026-04-24 01:40 | -33.26539 | -70.81049 | 3657 ft | 176 kts | 175° |
| 2026-04-24 01:40 | -33.27756 | -70.80946 | 3432 ft | 175 kts | 175° |
| 2026-04-24 01:41 | -33.28947 | -70.80845 | 3198 ft | 172 kts | 175° |
| 2026-04-24 01:41 | -33.30102 | -70.80757 | 2970 ft | 162 kts | 176° |
| 2026-04-24 01:41 | -33.31201 | -70.80697 | 2755 ft | 155 kts | 177° |
| 2026-04-24 01:42 | -33.34425 | -70.80534 | 2137 ft | 149 kts | 176° |
| 2026-04-24 01:42 | -33.35452 | -70.80469 | 1955 ft | 147 kts | 176° |
| 2026-04-24 01:42 | -33.36466 | -70.80409 | 1794 ft | 145 kts | 176° |
| 2026-04-24 01:43 | -33.37464 | -70.80360 | 1591 ft | 144 kts | 176° |
| 2026-04-24 01:43 | -33.38376 | -70.80309 | 1573 ft | 111 kts | 177° |
| 2026-04-24 01:43 | -33.38977 | -70.80278 | 1574 ft | 61 kts | 177° |